Latest Weather Observations for Mallacoota

IDV60801

Issued at 11:22 am EDT Thursday 23 January 2020 (issued every 10 minutes, with the page automatically refreshed every 10 minutes)

About weather observations | Map of weather stations | Latest weather observations for VIC | Other Formats
Station Details ID: 084084 Name: MALLACOOTA Lat: -37.60 Lon: 149.73 Height: 22.0 m
Data from the previous 72 hours. | See also: Recent months at Mallacoota
Date/Time
EDT
Temp
°C
App
Temp
°C
Dew
Point
°C
Rel
Hum
%
Delta-T
°C
Wind Press
QNH
hPa
Press
MSL
hPa
Rain since
9am
mm
Dir  Spd
km/h
Gust
km/h
Spd
kts
Gust
kts
23/11:00am 21.0 18.3 14.6 67 3.8 SSW 22 37 12 20 996.9 996.8 0.0
23/10:30am 20.5 17.6 15.1 71 3.2 SSW 24 33 13 18 996.9 996.8 0.0
23/10:00am 19.5 16.8 14.7 74 2.8 S 22 39 12 21 995.9 995.8 0.0
23/09:30am 23.0 21.7 14.8 60 4.9 SSW 15 24 8 13 995.9 995.8 0.0
23/09:00am 23.1 21.8 15.9 64 4.4 SSW 17 26 9 14 995.4 995.3 -
23/08:30am 21.3 19.2 14.7 66 3.9 S 19 33 10 18 995.3 995.2 -
23/08:22am 23.2 23.1 13.9 56 5.4 E 7 22 4 12 995.1 995.0 -
23/08:00am 28.5 25.6 11.1 34 10.0 N 17 24 9 13 994.6 994.5 -
23/07:30am 27.9 24.7 11.9 37 9.2 N 20 33 11 18 994.5 994.4 -
23/07:00am 27.2 24.6 13.2 42 8.3 N 19 32 10 17 994.7 994.6 -
23/06:30am 26.9 24.7 14.3 46 7.5 N 19 28 10 15 994.8 994.7 -
23/06:00am 26.5 24.6 15.2 49 6.9 N 19 28 10 15 994.8 994.7 -
23/05:30am 26.4 24.6 15.4 50 6.7 N 19 33 10 18 995.3 995.2 -
23/05:00am 27.0 24.5 15.1 48 7.3 N 22 33 12 18 995.4 995.3 -
23/04:30am 26.5 24.4 15.2 49 6.8 N 20 33 11 18 995.9 995.8 -
23/04:00am 26.3 24.6 16.3 54 6.2 N 20 28 11 15 996.5 996.4 -
23/03:30am 25.5 25.0 17.7 62 4.9 N 17 30 9 16 996.9 996.8 -
23/03:00am 24.4 25.0 18.6 70 3.7 NNW 13 20 7 11 997.8 997.7 -
23/02:30am 24.5 24.5 18.9 71 3.6 N 17 26 9 14 998.6 998.5 -
23/02:00am 24.6 23.7 19.0 71 3.6 N 22 32 12 17 999.4 999.3 -
23/01:30am 24.7 24.2 19.1 71 3.6 N 20 30 11 16 999.6 999.5 -
23/01:00am 24.8 - 18.7 69 3.9 - - - - - 999.8 999.7 -
23/12:00am 25.1 23.9 18.5 67 4.2 N 22 35 12 19 1000.3 1000.2 0.0
 
Date/Time
EDT
Temp
°C
App
Temp
°C
Dew
Point
°C
Rel
Hum
%
Delta-T
°C
Wind Press
QNH
hPa
Press
MSL
hPa
Rain since
9am
mm
Dir  Spd
km/h
Gust
km/h
Spd
kts
Gust
kts
22/11:30pm 24.9 24.3 18.8 69 3.9 N 20 30 11 16 1000.9 1000.8 0.0
22/11:00pm 25.1 23.6 18.5 67 4.2 N 24 33 13 18 1001.4 1001.3 0.0
22/10:30pm 25.3 24.4 18.2 64 4.5 N 20 30 11 16 1001.9 1001.8 0.0
22/10:00pm 25.5 24.6 18.2 64 4.6 N 20 32 11 17 1002.0 1001.9 0.0
22/09:30pm 25.7 24.4 18.1 63 4.8 N 22 35 12 19 1002.1 1002.0 0.0
22/09:00pm 25.7 24.1 18.4 64 4.7 N 24 35 13 19 1002.1 1002.0 0.0
22/08:30pm 26.3 25.2 17.4 58 5.6 N 19 35 10 19 1001.8 1001.7 0.0
22/08:00pm 26.7 24.4 16.6 54 6.3 N 24 41 13 22 1001.6 1001.5 0.0
22/07:30pm 27.0 24.9 17.2 55 6.1 N 24 37 13 20 1001.3 1001.2 0.0
22/07:00pm 28.3 25.8 16.2 47 7.5 N 24 44 13 24 1001.3 1001.2 0.0
22/06:32pm 28.4 24.3 15.0 44 8.1 N 30 57 16 31 1000.9 1000.8 0.0
22/06:30pm 28.7 24.6 14.9 43 8.4 N 30 46 16 25 1001.0 1000.9 0.0
22/06:03pm 29.5 24.9 15.2 41 8.8 N 33 52 18 28 1000.7 1000.6 0.0
22/06:00pm 29.3 24.3 15.1 42 8.7 N 35 52 19 28 1000.6 1000.5 0.0
22/05:46pm 29.5 25.0 14.9 41 8.9 NNE 32 50 17 27 1000.6 1000.5 0.0
22/05:30pm 29.1 24.8 14.5 41 8.8 NNE 30 39 16 21 1000.9 1000.8 0.0
22/05:08pm 30.5 26.4 13.7 35 10.1 NNE 28 46 15 25 1000.9 1000.8 0.0
22/05:00pm 30.4 26.3 14.9 39 9.5 NNE 30 44 16 24 1000.9 1000.8 0.0
22/04:30pm 29.9 25.3 12.3 33 10.3 NNE 28 43 15 23 1001.4 1001.3 0.0
22/04:00pm 30.9 26.0 11.3 30 11.4 NNE 28 43 15 23 1001.9 1001.8 0.0
22/03:30pm 27.4 21.8 12.2 39 8.8 NE 33 43 18 23 1002.2 1002.1 0.0
22/03:13pm 26.9 22.6 13.3 43 8.0 NE 28 46 15 25 1002.5 1002.4 0.0
22/03:00pm 27.7 23.3 14.0 43 8.2 ENE 30 44 16 24 1002.7 1002.6 0.0
22/02:30pm 26.7 23.5 15.4 50 6.9 ENE 26 41 14 22 1003.5 1003.4 0.0
22/02:00pm 26.7 23.9 16.3 53 6.4 ENE 26 35 14 19 1004.6 1004.5 0.0
22/01:30pm 26.3 23.9 16.5 54 6.1 ENE 24 32 13 17 1005.2 1005.1 0.0
22/01:00pm 25.6 24.3 17.3 60 5.2 ENE 20 28 11 15 1005.9 1005.8 0.0
22/12:30pm 25.6 24.6 18.0 63 4.8 ENE 20 26 11 14 1006.2 1006.1 0.0
22/12:00pm 24.5 24.4 18.7 70 3.7 ENE 17 24 9 13 1006.5 1006.4 0.0
22/11:30am 25.3 25.0 16.4 57 5.5 ENE 13 20 7 11 1007.1 1007.0 0.0
22/11:00am 24.6 24.6 16.3 60 5.1 ENE 11 15 6 8 1007.5 1007.4 0.0
22/10:30am 27.1 25.1 11.6 38 8.9 N 13 19 7 10 1007.6 1007.5 0.0
22/10:00am 25.8 24.8 14.6 50 6.7 NNW 13 20 7 11 1008.0 1007.9 0.0
22/09:30am 24.4 23.6 15.1 56 5.6 NNW 13 20 7 11 1008.3 1008.2 0.0
22/09:00am 22.9 21.9 15.7 64 4.3 N 15 22 8 12 1008.4 1008.3 0.0
22/08:30am 21.7 21.2 16.0 70 3.4 N 13 19 7 10 1008.9 1008.8 0.0
22/08:00am 20.4 19.9 15.8 75 2.7 NNW 13 17 7 9 1008.9 1008.8 0.0
22/07:30am 19.3 19.1 15.8 80 2.1 NNW 11 17 6 9 1008.9 1008.8 0.0
22/07:00am 18.5 18.3 15.7 84 1.7 N 11 15 6 8 1008.8 1008.7 0.0
22/06:30am 17.5 17.5 15.1 86 1.4 NNW 9 13 5 7 1008.7 1008.6 0.0
22/06:00am 16.2 16.1 14.0 87 1.2 NNW 7 11 4 6 1008.5 1008.4 0.0
22/05:30am 15.9 16.7 13.6 86 1.3 NNW 2 6 1 3 1008.4 1008.3 0.0
22/05:00am 16.5 16.4 13.8 84 1.5 NNW 7 9 4 5 1008.2 1008.1 0.0
22/04:30am 16.7 16.6 13.8 83 1.6 N 7 9 4 5 1008.1 1008.0 0.0
22/04:00am 17.1 16.9 13.6 80 2.0 NNW 7 9 4 5 1008.2 1008.1 0.0
22/03:30am 18.1 17.7 14.2 78 2.2 NNE 9 13 5 7 1008.6 1008.5 0.0
22/03:00am 18.0 17.2 13.9 77 2.3 NNE 11 15 6 8 1008.9 1008.8 0.0
22/02:30am 18.2 17.8 14.1 77 2.4 NNE 9 13 5 7 1009.3 1009.2 0.0
22/02:00am 17.8 17.4 14.1 79 2.1 NNE 9 13 5 7 1009.5 1009.4 0.0
22/01:30am 17.1 17.0 13.8 81 1.9 N 7 9 4 5 1009.7 1009.6 0.0
22/01:00am 17.2 17.0 13.1 77 2.3 N 6 9 3 5 1010.0 1009.9 0.0
22/12:30am 17.6 17.5 13.3 76 2.4 NNW 6 7 3 4 1010.5 1010.4 0.0
22/12:00am 17.4 17.4 13.5 78 2.2 NNW 6 7 3 4 1010.7 1010.6 0.0
 
Date/Time
EDT
Temp
°C
App
Temp
°C
Dew
Point
°C
Rel
Hum
%
Delta-T
°C
Wind Press
QNH
hPa
Press
MSL
hPa
Rain since
9am
mm
Dir  Spd
km/h
Gust
km/h
Spd
kts
Gust
kts
21/11:30pm 17.2 17.1 13.3 78 2.2 NW 6 7 3 4 1010.7 1010.6 0.0
21/11:00pm 16.9 16.7 13.0 78 2.2 NW 6 7 3 4 1010.7 1010.6 0.0
21/10:30pm 17.1 17.0 13.2 78 2.2 NW 6 7 3 4 1010.7 1010.6 0.0
21/10:00pm 16.9 16.6 12.8 77 2.3 WNW 6 6 3 3 1010.7 1010.6 0.0
21/09:30pm 16.8 16.3 12.1 74 2.6 W 6 7 3 4 1010.5 1010.4 0.0
21/09:00pm 17.5 17.1 12.4 72 2.8 WSW 6 9 3 5 1010.2 1010.1 0.0
21/08:30pm 17.8 16.9 12.5 71 2.9 SW 9 15 5 8 1009.7 1009.6 0.0
21/08:00pm 18.3 17.1 12.7 70 3.1 SSW 11 19 6 10 1009.4 1009.3 0.0
21/07:30pm 18.6 17.1 13.0 70 3.2 SSW 13 19 7 10 1008.9 1008.8 0.0
21/07:00pm 18.6 16.9 12.6 68 3.4 SW 13 22 7 12 1008.5 1008.4 0.0
21/06:30pm 18.8 15.7 13.4 71 3.1 SSW 22 33 12 18 1007.5 1007.4 0.0
21/06:00pm 19.0 16.1 13.0 68 3.4 S 20 32 11 17 1007.5 1007.4 0.0
21/05:30pm 19.6 17.0 13.8 69 3.3 S 20 33 11 18 1007.3 1007.2 0.0
21/05:00pm 19.6 16.5 13.5 68 3.5 S 22 32 12 17 1007.3 1007.2 0.0
21/04:30pm 19.3 15.5 13.5 69 3.3 S 26 39 14 21 1007.2 1007.1 0.0
21/04:00pm 20.0 17.1 13.9 68 3.5 S 22 32 12 17 1007.2 1007.1 0.0
21/03:30pm 19.8 16.5 14.0 69 3.3 SSW 24 41 13 22 1007.4 1007.3 0.0
21/03:00pm 20.2 16.9 13.9 67 3.6 SSW 24 35 13 19 1007.5 1007.4 0.0
21/02:30pm 20.4 17.4 14.7 70 3.3 S 24 39 13 21 1007.6 1007.5 0.0
21/02:00pm 22.0 18.7 12.8 56 5.3 SSW 22 35 12 19 1007.9 1007.8 0.0
21/01:30pm 21.3 18.7 11.9 55 5.3 SW 17 35 9 19 1007.9 1007.8 0.0
21/01:00pm 20.8 18.2 13.7 64 4.1 WSW 20 33 11 18 1008.1 1008.0 0.0
21/12:30pm 20.2 18.5 14.6 70 3.3 W 17 30 9 16 1008.0 1007.9 0.0
21/12:00pm 18.9 16.6 14.6 76 2.5 WSW 20 35 11 19 1007.8 1007.7 0.0
21/11:30am 18.3 15.2 14.4 78 2.2 WSW 24 39 13 21 1007.7 1007.6 0.0
21/11:00am 17.9 16.0 15.2 84 1.6 WSW 19 30 10 16 1007.5 1007.4 0.0
21/10:30am 18.3 16.4 15.2 82 1.8 WSW 19 32 10 17 1007.1 1007.0 0.0
21/10:00am 18.2 16.4 15.5 84 1.6 SW 19 32 10 17 1006.7 1006.6 0.0
21/09:30am 18.1 16.6 15.4 84 1.6 SW 17 30 9 16 1006.3 1006.2 0.0
21/09:00am 17.8 16.4 15.6 87 1.3 WSW 17 32 9 17 1006.1 1006.0 28.4
21/08:30am 17.2 15.3 15.2 88 1.2 WSW 19 32 10 17 1005.7 1005.6 28.4
21/08:00am 17.3 16.6 15.5 89 1.1 WSW 13 20 7 11 1005.1 1005.0 28.4
21/07:30am 16.8 15.7 14.4 86 1.4 W 13 22 7 12 1004.7 1004.6 28.0
21/07:00am 17.0 16.0 14.6 86 1.4 WSW 13 22 7 12 1004.0 1003.9 27.6
21/06:30am 16.5 15.8 14.3 87 1.3 W 11 20 6 11 1003.6 1003.5 27.6
21/06:00am 16.4 16.0 14.2 87 1.3 WNW 9 13 5 7 1003.0 1002.9 27.6
21/05:30am 16.7 15.6 14.3 86 1.4 W 13 19 7 10 1002.8 1002.7 27.6
21/05:00am 16.6 16.9 14.4 87 1.3 WNW 6 11 3 6 1002.5 1002.4 27.6
21/04:30am 16.8 16.5 14.4 86 1.4 W 9 17 5 9 1002.2 1002.1 27.6
21/04:00am 16.7 15.6 14.3 86 1.4 WSW 13 22 7 12 1001.8 1001.7 27.6
21/03:30am 16.8 16.2 14.6 87 1.3 WSW 11 24 6 13 1001.4 1001.3 27.6
21/03:00am 16.9 15.6 14.9 88 1.2 SW 15 22 8 12 1001.6 1001.5 27.6
21/02:30am 16.8 16.3 14.8 88 1.2 SW 11 19 6 10 1001.7 1001.6 27.4
21/02:00am 17.2 15.2 15.4 89 1.1 SW 20 35 11 19 1001.8 1001.7 26.8
21/01:30am 17.5 16.5 15.7 89 1.1 W 15 28 8 15 1002.2 1002.1 22.6
21/01:00am 16.9 17.2 14.9 88 1.2 WNW 7 9 4 5 1002.2 1002.1 19.6
21/12:30am 16.9 17.1 14.7 87 1.3 WNW 7 11 4 6 1002.3 1002.2 19.6
21/12:00am 16.5 16.7 14.2 86 1.3 WNW 6 7 3 4 1002.4 1002.3 19.6
 
Date/Time
EDT
Temp
°C
App
Temp
°C
Dew
Point
°C
Rel
Hum
%
Delta-T
°C
Wind Press
QNH
hPa
Press
MSL
hPa
Rain since
9am
mm
Dir  Spd
km/h
Gust
km/h
Spd
kts
Gust
kts
20/11:30pm 17.1 17.2 14.4 84 1.5 W 7 9 4 5 1002.4 1002.3 19.6
20/11:00pm 17.3 17.6 14.4 83 1.7 NW 6 7 3 4 1002.2 1002.1 19.6
20/10:30pm 17.5 17.3 14.6 83 1.7 NNW 9 15 5 8 1002.1 1002.0 19.6
20/10:00pm 17.3 17.4 14.0 81 1.9 N 6 9 3 5 1002.2 1002.1 19.6
20/09:30pm 18.1 18.0 14.0 77 2.3 W 7 13 4 7 1002.5 1002.4 19.6
20/09:00pm 18.5 18.7 14.2 76 2.5 W 6 9 3 5 1002.0 1001.9 19.6
20/08:30pm 18.8 18.5 14.3 75 2.6 WNW 9 17 5 9 1001.5 1001.4 19.6
20/08:00pm 19.3 18.7 14.6 74 2.7 W 11 17 6 9 1001.4 1001.3 19.6
20/07:30pm 20.0 19.6 15.2 74 2.8 WNW 11 17 6 9 1001.3 1001.2 19.6
20/07:00pm 20.2 20.4 15.8 76 2.6 WSW 9 11 5 6 1000.5 1000.4 19.6
20/06:30pm 20.1 20.6 16.5 80 2.2 SW 9 13 5 7 1000.0 999.9 19.6
20/06:00pm 19.6 19.9 17.0 85 1.6 SSW 11 15 6 8 1000.4 1000.3 19.6
20/05:30pm 18.9 19.6 17.0 89 1.1 S 9 13 5 7 1000.6 1000.5 19.6
20/05:00pm 17.9 19.3 16.4 91 0.9 WSW 4 9 2 5 1001.7 1001.6 19.6
20/04:30pm 17.4 17.7 16.1 92 0.8 SSW 9 13 5 7 1001.4 1001.3 19.4
20/04:12pm 17.2 17.4 15.7 91 0.9 SSW 9 20 5 11 1001.3 1001.2 19.2
20/04:00pm 17.2 17.0 15.7 91 0.9 NNW 11 15 6 8 1003.4 1003.3 18.8
20/03:30pm 17.1 16.8 15.4 90 1.0 WNW 11 19 6 10 1003.0 1002.9 18.2
20/03:00pm 17.0 16.1 14.8 87 1.3 WNW 13 20 7 11 1003.2 1003.1 15.6
20/02:46pm 18.9 17.3 16.1 84 1.7 WNW 19 43 10 23 1003.8 1003.7 3.2
20/02:30pm 19.8 19.7 17.8 88 1.2 S 15 24 8 13 1001.8 1001.7 0.0
20/02:00pm 20.3 18.9 17.9 86 1.5 S 22 30 12 16 1000.1 1000.0 0.0
20/01:30pm 20.5 18.7 17.9 85 1.6 S 24 32 13 17 1000.2 1000.1 0.0
20/01:00pm 22.6 22.0 18.8 79 2.4 S 20 30 11 16 1001.2 1001.1 0.0
20/12:30pm 21.1 19.0 18.1 83 1.9 S 26 33 14 18 1001.3 1001.2 0.0
20/12:00pm 21.8 21.8 19.0 84 1.8 SSE 17 28 9 15 1002.0 1001.9 0.0
20/11:30am 21.1 21.5 18.1 83 1.9 SSE 13 19 7 10 1002.3 1002.2 0.0

Other formats

Comma delimited format used in spreadsheet applications
http://www.bom.gov.au/fwo/IDV60801/IDV60801.94935.axf

JavaScript Object Notation format (JSON) in row-major order
http://www.bom.gov.au/fwo/IDV60801/IDV60801.94935.json

Data quality

Most of these data are generated automatically and are frequently updated. Quality checks on data are not normally performed. It is possible for incorrect values to appear. Refer to information at About Latest Weather Observations and please check the disclaimer before using these data.